Aviation Digital Data Service (ADDS)

Output produced by METARs form (0301 UTC 18 August 2017)
found at http://www.aviationweather.gov/adds/metars/
 
UMBB 180200Z 12002MPS 7000 NSC 18/15 Q1018 NOSIG
TAF UMBB 180205Z 1803/1812 VRB02MPS 6000 SCT020 TX28/1812Z TN19/1803Z 
     TEMPO 1803/1806 2000 BR SCT005
       
UMGG 180200Z 07002MPS CAVOK 17/14 Q1022 R10/CLRD// NOSIG
TAF UMGG 172300Z 1800/1824 VRB02MPS 9999 SCT030 TX32/1812Z TN16/1802Z 
     TEMPO 1800/1806 2000 BR SCT005 
     TEMPO 1806/1818 15006MPS
       
UMBB 180200Z 12002MPS 7000 NSC 18/15 Q1018 NOSIG
TAF UMBB 180205Z 1803/1812 VRB02MPS 6000 SCT020 TX28/1812Z TN19/1803Z 
     TEMPO 1803/1806 2000 BR SCT005
       
UMGG 180200Z 07002MPS CAVOK 17/14 Q1022 R10/CLRD// NOSIG
TAF UMGG 172300Z 1800/1824 VRB02MPS 9999 SCT030 TX32/1812Z TN16/1802Z 
     TEMPO 1800/1806 2000 BR SCT005 
     TEMPO 1806/1818 15006MPS
       
UMKK 180230Z 12003MPS 080V160 8000 SCT040 15/14 Q1016 R06/60D NOSIG RMK QFE761/1014
TAF UMKK 180155Z 1803/1903 16005MPS 9999 SCT011 BKN020 
     TEMPO 1803/1806 3100 BR MIFG 
     TEMPO 1806/1812 19005MPS 3100 -SHRA BR BKN020CB 
     BECMG 1812/1814 VRB01MPS
       
UMMS 180237Z 00000MPS 4700 BR NSC 18/16 Q1020 R13/290055 NOSIG
TAF UMMS 172305Z 1800/1824 18005MPS 5000 BR BKN020 
     TEMPO 1800/1807 VRB14MPS 0300 -TSRA FG SQ BKN002 BKN015CB 
     FM180700 18007MPS 9999 BKN030 
     TEMPO 1807/1824 18009G14MPS 1200 TSRA BKN004 BKN015CB
       
UMMS 180237Z 00000MPS 4700 BR NSC 18/16 Q1020 R13/290055 NOSIG
TAF UMMS 172305Z 1800/1824 18005MPS 5000 BR BKN020 
     TEMPO 1800/1807 VRB14MPS 0300 -TSRA FG SQ BKN002 BKN015CB 
     FM180700 18007MPS 9999 BKN030 
     TEMPO 1807/1824 18009G14MPS 1200 TSRA BKN004 BKN015CB